createdAt,value
2018-07-08T00:00:08.978Z,9.43
2018-07-08T00:02:37.744Z,8.47
2018-07-08T00:05:09.868Z,8.80
2018-07-08T00:07:38.946Z,9.13
2018-07-08T00:10:07.882Z,8.90
2018-07-08T00:12:36.438Z,7.97
2018-07-08T00:15:04.846Z,9.27
2018-07-08T00:17:33.595Z,9.17
2018-07-08T00:20:05.615Z,9.07
2018-07-08T00:22:35.331Z,9.10
2018-07-08T00:25:05.210Z,9.07
2018-07-08T00:27:37.614Z,9.63
2018-07-08T00:30:07.757Z,9.07
2018-07-08T00:32:36.210Z,9.60
2018-07-08T00:35:04.674Z,9.43
2018-07-08T00:37:33.137Z,9.73
2018-07-08T00:40:01.548Z,9.33
2018-07-08T00:42:30.089Z,9.50
2018-07-08T00:44:58.867Z,9.43
2018-07-08T00:47:27.289Z,9.40
2018-07-08T00:49:55.707Z,9.30
2018-07-08T00:52:24.257Z,9.33
2018-07-08T00:54:52.765Z,9.53
2018-07-08T00:57:21.237Z,10.10
2018-07-08T00:59:49.826Z,9.17
2018-07-08T01:02:18.328Z,9.97
2018-07-08T01:04:46.811Z,9.77
2018-07-08T01:07:15.220Z,9.03
2018-07-08T01:09:43.670Z,10.63
2018-07-08T01:12:13.962Z,9.30
2018-07-08T01:14:45.556Z,9.30
2018-07-08T01:17:14.098Z,9.80
2018-07-08T01:19:42.786Z,9.97
2018-07-08T01:22:11.290Z,9.70
2018-07-08T01:24:39.842Z,9.63
2018-07-08T01:27:08.291Z,10.17
2018-07-08T01:29:36.862Z,9.37
2018-07-08T01:32:05.337Z,9.10
2018-07-08T01:34:33.450Z,9.93
2018-07-08T01:37:02.029Z,9.47
2018-07-08T01:39:30.743Z,10.10
2018-07-08T01:41:59.256Z,9.70
2018-07-08T01:44:27.883Z,10.13
2018-07-08T01:46:56.676Z,10.17
2018-07-08T01:49:25.098Z,10.03
2018-07-08T01:51:53.823Z,10.67
2018-07-08T01:54:22.324Z,10.00
2018-07-08T01:56:50.813Z,9.80
2018-07-08T01:59:19.225Z,9.80
2018-07-08T02:01:48.032Z,10.27
2018-07-08T02:04:16.494Z,9.83
2018-07-08T02:06:45.017Z,10.90
2018-07-08T02:09:13.439Z,10.00
2018-07-08T02:11:41.926Z,10.40
2018-07-08T02:14:10.433Z,10.13
2018-07-08T02:16:38.915Z,10.00
2018-07-08T02:19:07.396Z,9.97
2018-07-08T02:21:35.968Z,10.60
2018-07-08T02:24:04.427Z,10.77
2018-07-08T02:26:33.142Z,10.03
2018-07-08T02:29:01.787Z,10.60
2018-07-08T02:31:30.275Z,10.53
2018-07-08T02:33:58.804Z,10.57
2018-07-08T02:36:27.601Z,11.20
2018-07-08T02:38:56.347Z,10.53
2018-07-08T02:41:24.785Z,10.57
2018-07-08T02:43:52.929Z,10.50
2018-07-08T02:46:21.683Z,11.03
2018-07-08T02:48:50.883Z,10.50
2018-07-08T02:51:19.385Z,11.23
2018-07-08T02:53:47.931Z,9.90
2018-07-08T02:56:16.471Z,10.33
2018-07-08T02:58:44.953Z,10.00
2018-07-08T03:01:13.392Z,11.20
2018-07-08T03:03:41.917Z,10.43
2018-07-08T03:06:10.456Z,11.57
2018-07-08T03:08:39.024Z,11.37
2018-07-08T03:11:08.490Z,10.57
2018-07-08T03:13:37.023Z,11.07
2018-07-08T03:16:06.043Z,11.17
2018-07-08T03:18:34.498Z,11.23
2018-07-08T03:21:02.981Z,11.00
2018-07-08T03:23:31.473Z,9.70
2018-07-08T03:25:59.798Z,9.80
2018-07-08T03:28:28.267Z,10.73
2018-07-08T03:30:56.699Z,10.90
2018-07-08T03:33:25.196Z,10.50
2018-07-08T03:35:53.912Z,9.30
2018-07-08T03:38:22.598Z,9.80
2018-07-08T03:40:51.082Z,10.43
2018-07-08T03:43:19.578Z,9.90
2018-07-08T03:45:47.976Z,10.57
2018-07-08T03:48:16.207Z,9.57
2018-07-08T03:50:44.756Z,10.03
2018-07-08T03:53:13.219Z,9.60
2018-07-08T03:55:41.718Z,9.73
2018-07-08T03:58:10.171Z,10.23
2018-07-08T04:00:38.886Z,9.83
2018-07-08T04:03:07.320Z,9.77
2018-07-08T04:05:35.910Z,8.97
2018-07-08T04:08:04.415Z,10.53
2018-07-08T04:10:32.970Z,10.23
2018-07-08T04:13:01.817Z,9.20
2018-07-08T04:15:30.561Z,9.87
2018-07-08T04:18:06.090Z,10.10
2018-07-08T04:20:34.628Z,9.70
2018-07-08T04:23:03.456Z,9.57
2018-07-08T04:25:32.574Z,9.77
2018-07-08T04:28:01.220Z,10.00
2018-07-08T04:30:30.566Z,9.17
2018-07-08T04:32:59.594Z,10.23
2018-07-08T04:35:28.062Z,9.40
2018-07-08T04:37:57.536Z,9.47
2018-07-08T04:40:26.018Z,8.90
2018-07-08T04:42:54.448Z,8.97
2018-07-08T04:45:22.971Z,9.10
2018-07-08T04:47:51.466Z,9.50
2018-07-08T04:50:19.941Z,10.03
2018-07-08T04:52:48.383Z,10.13
2018-07-08T04:55:16.860Z,10.03
2018-07-08T04:57:45.318Z,10.53
2018-07-08T05:00:13.868Z,10.73
2018-07-08T05:02:42.342Z,10.17
2018-07-08T05:05:10.896Z,10.77
2018-07-08T05:07:39.435Z,10.93
2018-07-08T05:10:07.953Z,9.90
2018-07-08T05:12:36.477Z,10.47
2018-07-08T05:15:04.884Z,9.77
2018-07-08T05:17:33.346Z,9.93
2018-07-08T05:20:01.854Z,9.77
2018-07-08T05:22:30.281Z,9.33
2018-07-08T05:24:58.679Z,9.90
2018-07-08T05:27:27.179Z,9.77
2018-07-08T05:29:55.963Z,9.30
2018-07-08T05:32:24.853Z,10.07
2018-07-08T05:34:53.467Z,10.30
2018-07-08T05:37:21.936Z,10.13
2018-07-08T05:39:50.298Z,9.63
2018-07-08T05:42:18.840Z,11.07
2018-07-08T05:44:47.409Z,10.60
2018-07-08T05:47:15.798Z,9.90
2018-07-08T05:49:44.388Z,10.33
2018-07-08T05:52:12.781Z,10.33
2018-07-08T05:54:41.295Z,10.07
2018-07-08T05:57:10.135Z,10.13
2018-07-08T05:59:38.819Z,10.57
2018-07-08T06:02:07.208Z,10.70
2018-07-08T06:05:38.789Z,10.77
2018-07-08T06:08:07.322Z,10.37
2018-07-08T06:10:36.024Z,9.73
2018-07-08T06:13:04.486Z,10.33
2018-07-08T06:15:32.979Z,9.47
2018-07-08T06:18:03.298Z,9.30
2018-07-08T06:20:33.169Z,9.50
2018-07-08T06:23:02.112Z,9.73
2018-07-08T06:25:31.985Z,9.13
2018-07-08T06:28:00.628Z,10.03
2018-07-08T06:30:29.289Z,10.03
2018-07-08T06:32:58.129Z,9.43
2018-07-08T06:35:26.698Z,9.97
2018-07-08T06:37:55.177Z,9.60
2018-07-08T06:40:23.796Z,9.47
2018-07-08T06:42:52.004Z,9.60
2018-07-08T06:45:20.515Z,10.57
2018-07-08T06:47:48.970Z,9.50
2018-07-08T06:50:18.700Z,9.43
2018-07-08T06:52:47.368Z,9.57
2018-07-08T06:55:15.895Z,8.90
2018-07-08T06:57:44.408Z,9.37
2018-07-08T07:00:13.168Z,9.80
2018-07-08T07:02:42.186Z,9.30
2018-07-08T07:05:11.111Z,8.83
2018-07-08T07:07:39.573Z,9.40
2018-07-08T07:10:08.561Z,9.60
2018-07-08T07:12:36.997Z,9.00
2018-07-08T07:15:05.847Z,9.30
2018-07-08T07:17:34.516Z,9.07
2018-07-08T07:20:05.385Z,8.77
2018-07-08T07:35:42.709Z,8.70
2018-07-08T07:38:14.459Z,8.27
2018-07-08T07:40:43.175Z,9.03
2018-07-08T07:43:11.768Z,8.33
2018-07-08T07:45:40.517Z,7.93
2018-07-08T07:48:09.121Z,8.70
2018-07-08T07:50:37.842Z,8.43
2018-07-08T07:53:06.309Z,9.30
2018-07-08T07:55:35.039Z,8.17
2018-07-08T07:58:03.726Z,8.53
2018-07-08T08:00:32.353Z,8.67
2018-07-08T08:03:01.376Z,8.43
2018-07-08T08:05:31.543Z,8.80
2018-07-08T08:08:00.097Z,8.67
2018-07-08T08:10:28.980Z,9.07
2018-07-08T08:12:57.516Z,8.43
2018-07-08T08:15:28.302Z,8.83
2018-07-08T08:17:58.809Z,9.63
2018-07-08T08:20:27.680Z,9.27
2018-07-08T08:23:00.747Z,10.03
2018-07-08T08:25:29.919Z,10.00
2018-07-08T08:27:59.902Z,10.10
2018-07-08T08:30:29.315Z,8.90
2018-07-08T08:32:58.181Z,8.43
2018-07-08T08:35:27.895Z,8.23
2018-07-08T08:37:58.176Z,7.53
2018-07-08T08:40:28.517Z,8.00
2018-07-08T08:42:57.305Z,7.50
2018-07-08T08:45:27.649Z,7.67
2018-07-08T08:47:56.677Z,6.23
2018-07-08T08:50:25.138Z,6.50
2018-07-08T08:52:54.113Z,5.97
2018-07-08T08:55:22.644Z,5.50
2018-07-08T08:57:51.095Z,5.63
2018-07-08T09:00:20.036Z,4.43
2018-07-08T09:02:48.710Z,4.77
2018-07-08T09:05:17.622Z,4.83
2018-07-08T09:07:46.093Z,4.97
2018-07-08T09:10:14.522Z,4.67
2018-07-08T09:12:43.442Z,4.70
2018-07-08T09:15:12.278Z,4.43
2018-07-08T09:17:41.018Z,4.00
2018-07-08T09:20:09.606Z,3.97
2018-07-08T09:22:38.295Z,3.80
2018-07-08T09:25:07.219Z,4.00
2018-07-08T09:27:35.986Z,3.60
2018-07-08T09:30:06.967Z,3.80
2018-07-08T09:32:35.466Z,3.63
2018-07-08T09:35:03.922Z,4.33
2018-07-08T09:37:32.410Z,4.90
2018-07-08T09:40:03.513Z,4.40
2018-07-08T09:42:31.978Z,4.37
2018-07-08T09:45:00.550Z,4.80
2018-07-08T09:47:29.102Z,3.83
2018-07-08T09:49:57.980Z,3.00
2018-07-08T09:52:29.399Z,3.37
2018-07-08T09:54:58.006Z,3.20
2018-07-08T09:57:29.505Z,8.67
2018-07-08T09:59:58.490Z,4.40
2018-07-08T10:02:26.952Z,3.43
2018-07-08T10:04:55.546Z,2.77
2018-07-08T10:07:24.516Z,2.93
2018-07-08T10:09:54.460Z,3.00
2018-07-08T10:12:23.142Z,3.23
2018-07-08T10:14:51.968Z,3.03
2018-07-08T10:17:22.894Z,3.07
2018-07-08T10:19:51.855Z,2.80
2018-07-08T10:22:20.700Z,2.93
2018-07-08T10:24:49.356Z,2.90
2018-07-08T10:27:30.432Z,2.60
2018-07-08T10:29:59.548Z,2.60
2018-07-08T10:32:28.443Z,3.00
2018-07-08T10:34:57.152Z,2.97
2018-07-08T10:37:25.802Z,3.30
2018-07-08T10:39:54.613Z,3.53
2018-07-08T10:42:23.833Z,3.30
2018-07-08T10:44:53.179Z,3.40
2018-07-08T10:47:26.607Z,3.30
2018-07-08T10:49:58.481Z,3.20
2018-07-08T10:52:27.550Z,3.77
2018-07-08T10:54:57.085Z,3.13
2018-07-08T10:57:25.917Z,3.40
2018-07-08T10:59:55.940Z,3.40
2018-07-08T11:02:25.244Z,3.60
2018-07-08T11:04:54.619Z,4.00
2018-07-08T11:07:23.289Z,3.97
2018-07-08T11:09:52.333Z,5.00
2018-07-08T11:12:21.647Z,3.33
2018-07-08T11:14:50.749Z,3.77
2018-07-08T11:17:23.034Z,2.97
2018-07-08T11:19:51.906Z,3.33
2018-07-08T11:22:21.881Z,3.73
2018-07-08T11:24:52.415Z,3.40
2018-07-08T11:27:21.403Z,3.73
2018-07-08T11:29:53.689Z,3.10
2018-07-08T11:32:24.164Z,3.33
2018-07-08T11:34:53.186Z,3.43
2018-07-08T11:37:23.322Z,3.03
2018-07-08T11:39:52.293Z,3.53
2018-07-08T11:42:20.784Z,3.70
2018-07-08T11:44:51.317Z,3.50
2018-07-08T11:47:20.021Z,3.73
2018-07-08T11:49:50.454Z,3.93
2018-07-08T11:52:30.711Z,3.30
2018-07-08T11:54:59.805Z,5.67
2018-07-08T11:57:28.399Z,2.87
2018-07-08T11:59:57.276Z,3.57
2018-07-08T12:02:26.197Z,3.60
2018-07-08T12:04:54.956Z,3.20
2018-07-08T12:07:23.941Z,3.50
2018-07-08T12:09:52.755Z,3.60
2018-07-08T12:12:21.751Z,3.50
2018-07-08T12:14:50.337Z,3.20
2018-07-08T12:17:19.425Z,2.93
2018-07-08T12:19:51.105Z,3.25
2018-07-08T12:22:24.074Z,3.17
2018-07-08T12:24:56.256Z,5.13
2018-07-08T12:27:27.566Z,3.05
2018-07-08T12:29:56.496Z,3.90
2018-07-08T12:32:25.422Z,3.87
2018-07-08T12:34:54.081Z,2.70
2018-07-08T12:37:30.833Z,2.80
2018-07-08T12:40:10.264Z,2.40
2018-07-08T12:42:43.307Z,2.60
2018-07-08T12:45:12.645Z,2.92
2018-07-08T12:47:47.234Z,2.55
2018-07-08T12:50:16.592Z,3.92
2018-07-08T12:52:45.244Z,4.90
2018-07-08T12:55:14.603Z,2.50
2018-07-08T12:57:43.146Z,2.73
2018-07-08T13:00:12.199Z,2.77
2018-07-08T13:02:42.689Z,2.50
2018-07-08T13:05:11.523Z,2.70
2018-07-08T13:07:39.953Z,2.57
2018-07-08T13:10:09.413Z,2.95
2018-07-08T13:12:38.280Z,2.97
2018-07-08T13:15:07.231Z,2.40
2018-07-08T13:17:38.180Z,2.72
2018-07-08T13:20:07.731Z,13.55
2018-07-08T13:22:37.539Z,2.17
2018-07-08T13:25:08.755Z,2.65
2018-07-08T13:27:38.547Z,7.60
2018-07-08T13:33:44.934Z,6.43
2018-07-08T13:36:14.841Z,7.35
2018-07-08T13:38:44.083Z,2.43
2018-07-08T13:41:12.863Z,2.27
2018-07-08T13:43:46.473Z,2.07
2018-07-08T13:46:15.580Z,2.25
2018-07-08T13:48:44.639Z,3.00
2018-07-08T13:54:09.251Z,2.40
2018-07-08T13:56:39.111Z,2.20
2018-07-08T13:59:22.217Z,2.47
2018-07-08T14:01:51.200Z,1.93
2018-07-08T14:04:20.570Z,2.30
2018-07-08T14:06:49.974Z,2.00
2018-07-08T14:09:19.280Z,2.23
2018-07-08T14:11:49.253Z,2.30
2018-07-08T14:14:18.635Z,1.70
2018-07-08T14:16:48.013Z,2.00
2018-07-08T14:19:18.653Z,3.67
2018-07-08T14:21:50.436Z,2.93
2018-07-08T14:24:34.403Z,2.40
2018-07-08T14:27:12.020Z,1.70
2018-07-08T14:29:45.716Z,2.40
2018-07-08T14:32:24.777Z,2.20
2018-07-08T14:34:59.280Z,1.87
2018-07-08T14:37:28.947Z,1.85
2018-07-08T14:39:58.770Z,1.50
2018-07-08T14:42:28.418Z,2.10
2018-07-08T14:44:58.666Z,1.80
2018-07-08T14:47:31.963Z,2.07
2018-07-08T14:50:04.167Z,1.97
2018-07-08T14:52:34.449Z,2.40
2018-07-08T14:55:04.252Z,1.85
2018-07-08T14:57:34.240Z,2.17
2018-07-08T15:00:11.588Z,1.80
2018-07-08T15:02:47.713Z,1.83
2018-07-08T15:05:25.516Z,1.50
2018-07-08T15:07:55.309Z,2.00
2018-07-08T15:10:25.509Z,1.98
2018-07-08T15:12:57.187Z,2.00
2018-07-08T15:15:27.380Z,1.77
2018-07-08T15:17:56.637Z,1.80
2018-07-08T15:20:29.057Z,1.73
2018-07-08T15:23:00.045Z,1.50
2018-07-08T15:25:39.952Z,1.70
2018-07-08T15:28:10.147Z,1.98
2018-07-08T15:30:40.013Z,2.00
2018-07-08T15:33:11.924Z,1.80
2018-07-08T15:35:44.088Z,2.30
2018-07-08T15:38:14.433Z,3.07
2018-07-08T15:40:46.585Z,5.60
2018-07-08T15:43:17.715Z,4.67
2018-07-08T15:45:48.974Z,2.37
2018-07-08T15:48:18.849Z,2.50
2018-07-08T15:50:47.995Z,8.83
2018-07-08T15:53:17.555Z,13.60
2018-07-08T15:55:47.041Z,3.77
2018-07-08T15:58:16.380Z,6.67
2018-07-08T16:00:45.805Z,11.83
2018-07-08T16:03:15.417Z,21.67
2018-07-08T16:05:45.619Z,12.70
2018-07-08T16:08:14.923Z,8.13
2018-07-08T16:10:43.649Z,3.53
2018-07-08T16:13:13.189Z,4.87
2018-07-08T16:15:43.445Z,2.23
2018-07-08T16:18:13.134Z,2.40
2018-07-08T16:20:46.841Z,2.00
2018-07-08T16:23:16.078Z,1.93
2018-07-08T16:25:45.538Z,1.70
2018-07-08T16:28:15.394Z,2.75
2018-07-08T16:30:45.069Z,4.33
2018-07-08T16:33:14.345Z,5.37
2018-07-08T16:35:48.445Z,2.35
2018-07-08T16:38:17.356Z,2.00
2018-07-08T16:40:47.952Z,3.40
2018-07-08T16:43:17.840Z,2.60
2018-07-08T16:45:46.882Z,2.00
2018-07-08T16:48:15.983Z,1.57
2018-07-08T16:50:45.339Z,1.80
2018-07-08T16:53:15.665Z,1.65
2018-07-08T16:55:45.117Z,1.63
2018-07-08T16:58:15.625Z,1.42
2018-07-08T17:00:44.568Z,2.23
2018-07-08T17:03:14.266Z,1.45
2018-07-08T17:05:44.459Z,1.93
2018-07-08T17:08:13.735Z,4.07
2018-07-08T17:10:44.283Z,2.02
2018-07-08T17:13:25.427Z,1.45
2018-07-08T17:15:54.151Z,1.80
2018-07-08T17:18:24.083Z,1.67
2018-07-08T17:20:53.507Z,1.40
2018-07-08T17:23:22.731Z,1.63
2018-07-08T17:25:52.757Z,1.67
2018-07-08T17:28:22.482Z,1.42
2018-07-08T17:30:51.968Z,1.13
2018-07-08T17:33:22.646Z,1.10
2018-07-08T17:35:52.172Z,1.53
2018-07-08T17:38:22.779Z,3.10
2018-07-08T17:40:53.960Z,1.70
2018-07-08T17:43:23.435Z,1.42
2018-07-08T17:45:52.451Z,3.37
2018-07-08T17:48:22.816Z,2.20
2018-07-08T17:50:52.303Z,1.50
2018-07-08T17:53:22.536Z,1.60
2018-07-08T17:55:51.539Z,4.40
2018-07-08T17:58:21.417Z,4.28
2018-07-08T18:00:51.163Z,3.40
2018-07-08T18:03:21.607Z,2.33
2018-07-08T18:06:16.856Z,1.60
2018-07-08T18:10:43.736Z,1.77
2018-07-08T18:13:35.861Z,1.70
2018-07-08T18:16:23.008Z,1.57
2018-07-08T18:18:54.438Z,2.10
2018-07-08T18:21:24.276Z,1.50
2018-07-08T18:23:54.198Z,1.30
2018-07-08T18:26:32.009Z,1.43
2018-07-08T18:29:01.080Z,1.50
2018-07-08T18:37:48.085Z,1.80
2018-07-08T18:40:24.813Z,1.50
2018-07-08T18:43:18.105Z,1.90
2018-07-08T18:46:01.647Z,1.80
2018-07-08T18:48:41.669Z,2.67
2018-07-08T18:51:22.551Z,1.57
2018-07-08T18:54:01.201Z,1.33
2018-07-08T18:56:44.831Z,2.20
2018-07-08T18:59:13.335Z,1.57
2018-07-08T19:01:42.669Z,1.95
2018-07-08T19:04:11.606Z,6.57
2018-07-08T19:07:18.779Z,1.73
2018-07-08T19:10:08.036Z,2.10
2018-07-08T19:18:36.313Z,2.10
2018-07-08T19:21:12.708Z,1.70
2018-07-08T19:24:15.220Z,1.50
2018-07-08T19:27:14.101Z,1.83
2018-07-08T19:33:27.567Z,1.53
2018-07-08T19:36:02.085Z,1.53
2018-07-08T19:39:10.479Z,1.77
2018-07-08T19:41:51.102Z,1.60
2018-07-08T19:48:13.107Z,2.37
2018-07-08T19:50:53.767Z,2.60
2018-07-08T19:53:50.570Z,2.40
2018-07-08T19:56:37.053Z,4.17
2018-07-08T19:59:22.142Z,2.83
2018-07-08T20:08:55.733Z,2.07
2018-07-08T20:11:42.042Z,2.17
2018-07-08T20:14:31.942Z,1.80
2018-07-08T20:17:22.066Z,1.63
2018-07-08T20:20:27.759Z,1.35
2018-07-08T20:22:57.701Z,1.57
2018-07-08T20:33:07.895Z,1.60
2018-07-08T20:36:06.974Z,1.60
2018-07-08T20:48:40.304Z,3.77
2018-07-08T20:58:57.018Z,1.70
2018-07-08T21:01:43.184Z,1.80
2018-07-08T21:04:21.462Z,1.60
2018-07-08T21:06:50.308Z,1.30
2018-07-08T21:09:22.199Z,1.57
2018-07-08T21:11:51.097Z,1.40
2018-07-08T21:14:19.816Z,1.90
2018-07-08T21:16:48.248Z,2.20
2018-07-08T21:19:16.919Z,2.20
2018-07-08T21:21:46.804Z,2.47
2018-07-08T21:24:16.218Z,2.27
2018-07-08T21:26:44.649Z,3.17
2018-07-08T21:29:17.831Z,2.73
2018-07-08T21:31:46.276Z,2.77
2018-07-08T21:34:15.043Z,3.17
2018-07-08T21:36:44.364Z,3.53
2018-07-08T21:39:13.979Z,3.63
2018-07-08T21:41:43.087Z,3.83
2018-07-08T21:44:12.017Z,4.07
2018-07-08T21:46:45.899Z,3.13
2018-07-08T21:49:22.659Z,3.30
2018-07-08T21:51:51.176Z,3.50
2018-07-08T21:54:19.617Z,2.93
2018-07-08T21:57:03.134Z,3.30
2018-07-08T21:59:36.900Z,2.67
2018-07-08T22:02:14.095Z,2.57
2018-07-08T22:04:44.127Z,3.93
2018-07-08T22:07:20.877Z,2.47
2018-07-08T22:09:52.434Z,2.87
2018-07-08T22:12:21.479Z,3.30
2018-07-08T22:14:51.433Z,2.70
2018-07-08T22:17:20.675Z,2.93
2018-07-08T22:19:49.643Z,3.02
2018-07-08T22:22:18.140Z,2.33
2018-07-08T22:24:46.622Z,3.10
2018-07-08T22:27:15.136Z,3.50
2018-07-08T22:29:44.644Z,2.77
2018-07-08T22:32:13.089Z,3.00
2018-07-08T22:34:55.210Z,2.60
2018-07-08T22:37:23.760Z,2.27
2018-07-08T22:39:52.369Z,2.83
2018-07-08T22:42:20.764Z,2.90
2018-07-08T22:44:49.353Z,2.40
2018-07-08T22:47:18.217Z,2.27
2018-07-08T22:49:46.883Z,2.27
2018-07-08T22:52:15.333Z,2.17
2018-07-08T22:58:16.016Z,2.20
2018-07-08T23:00:55.711Z,2.30
2018-07-08T23:03:58.153Z,2.17
2018-07-08T23:06:26.562Z,2.17
2018-07-08T23:08:55.846Z,2.47
2018-07-08T23:11:24.914Z,2.47
2018-07-08T23:13:54.487Z,2.00
2018-07-08T23:16:23.564Z,2.50
2018-07-08T23:18:52.049Z,2.20
2018-07-08T23:21:20.472Z,2.10
2018-07-08T23:23:48.874Z,1.90
2018-07-08T23:26:17.659Z,1.90
2018-07-08T23:28:46.777Z,2.20
2018-07-08T23:31:15.280Z,2.90
2018-07-08T23:33:44.044Z,2.20
2018-07-08T23:36:13.192Z,2.30
2018-07-08T23:38:41.724Z,2.10
2018-07-08T23:41:11.190Z,2.43
2018-07-08T23:43:40.270Z,2.83
2018-07-08T23:46:09.885Z,2.60
2018-07-08T23:48:39.758Z,2.07
2018-07-08T23:51:08.391Z,2.30
2018-07-08T23:53:36.959Z,2.10
2018-07-08T23:56:06.105Z,2.37
2018-07-08T23:58:34.737Z,2.40
